James Reserve, California Weather observations

Data are for 10 minute period ending at time listed.
 Day   Time   Solar   Ave.   Ave.  Ave.  Vector  Max.   Baro.   Total    
  of    of     Rad.   Air    Rel.  Wind   Wind   Wind  Press.  Precip.   
Year   Day            Temp.  Hum.  Speed  Dir.   Gust                    
2016   (PST)  Kw/m2    F      %     mph   deg.    mph    mb.     in.     
-------------------------------------------------------------------------
 237    1:00   0.00   53.8    54    0.3    25     0.6   842.0    0.00 
 237    1:10   0.00   53.8    54    0.2   352     0.4   842.0    0.00 
 237    1:20   0.00   53.7    55    0.3    33     0.5   842.0    0.00 
 237    1:30   0.00   53.9    56    0.3    29     0.6   842.0    0.00 
 237    1:40   0.00   53.8    57    0.2    19     0.4   842.0    0.00 
 237    1:50   0.00   53.8    57    0.2    10     0.4   842.0    0.00 
 237    2:00   0.00   53.6    57    0.3    23     0.6   842.0    0.00 
 237    2:10   0.00   53.6    57    0.3    24     0.4   842.0    0.00 
 237    2:20   0.00   53.3    58    0.3    34     0.7   842.0    0.00 
 237    2:30   0.00   53.4    58    0.2    13     0.5   842.0    0.00 
 237    2:40   0.00   53.3    58    0.3    27     0.7   842.0    0.00 
 237    2:50   0.00   53.2    59    0.3    43     0.5   842.0    0.00 
 237    3:00   0.00   53.2    59    0.3    34     0.7   842.0    0.00 
 237    3:10   0.00   53.3    59    0.3    32     0.7   842.0    0.00 
 237    3:20   0.00   53.3    60    0.4    35     0.9   842.0    0.00 
 237    3:30   0.00   53.3    60    0.3    23     0.6   842.0    0.00 
 237    3:40   0.00   53.3    60    0.2    34     0.6   842.0    0.00 
 237    3:50   0.00   53.3    61    0.2    31     0.3   842.0    0.00 
 237    4:00   0.00   53.3    62    0.2    23     0.5   842.0    0.00 
 237    4:10   0.00   53.2    62    0.2    30     0.4   842.0    0.00 
 237    4:20   0.00   53.3    62    0.2    31     0.4   842.0    0.00 
 237    4:30   0.00   53.3    63    0.2    30     0.3   842.0    0.00 
 237    4:40   0.00   53.3    63    0.2    24     0.3   842.0    0.00 
 237    4:50   0.00   53.3    63    0.2    42     0.4   842.0    0.00 
 237    5:00   0.00   53.3    63    0.2    37     0.4   842.0    0.00 
 237    5:10   0.00   53.3    63    0.2    24     0.5   842.0    0.00 
 237    5:20   0.00   53.3    63    0.2    33     0.3   842.0    0.00 
 237    5:30   0.00   53.3    62    0.3    42     0.4   842.0    0.00 
 237    5:40   0.01   53.4    62    0.2    34     0.3   842.0    0.00 
 237    5:50   0.01   53.6    62    0.2    43     0.4   842.0    0.00 
 237    6:00   0.01   53.7    62    0.2    36     0.4   842.0    0.00 
 237    6:10   0.02   53.8    62    0.2    43     0.4   842.0    0.00 
 237    6:20   0.02   54.0    62    0.3    42     0.6   842.0    0.00 
 237    6:30   0.02   54.0    62    0.3    47     0.5   842.0    0.00 
 237    6:40   0.03   54.3    62    0.4    49     0.6   842.0    0.00 
 237    6:50   0.03   55.1    60    0.4    50     0.6   842.0    0.00 
 237    7:00   0.04   56.0    58    0.5    54     0.7   842.0    0.00 
 237    7:10   0.05   57.0    56    0.5    52     0.7   843.0    0.00 
 237    7:20   0.04   58.0    54    0.6    54     0.8   843.0    0.00 
 237    7:30   0.05   59.1    52    0.7    54     0.8   843.0    0.00 
 237    7:40   0.06   60.2    50    0.6    54     0.8   843.0    0.00 
 237    7:50   0.08   61.2    49    0.5    53     0.7   843.0    0.00 
 237    8:00   0.30   62.5    47    0.4    58     0.7   843.0    0.00 
 237    8:10   0.24   64.3    46    0.2    64     0.5   843.0    0.00 
 237    8:20   0.37   66.3    45    0.2    95     0.5   843.0    0.00 
 237    8:30   0.62   69.3    41    0.3   198     1.3   843.0    0.00 
 237    8:40   0.34   71.7    34    0.4   210     1.5   843.0    0.00 
 237    8:50   0.20   72.8    32    0.7   208     1.9   843.0    0.00 
 237    9:00   0.08   73.6    29    0.6   151     1.2   843.0    0.00 
 237    9:10   0.16   74.1    28    0.7   154     1.7   843.0    0.00 
 237    9:20   0.74   74.5    27    0.8   156     2.4   843.0    0.00 
 237    9:30   0.80   74.8    26    0.6   154     2.2   843.0    0.00 
 237    9:40   0.83   75.6    26    1.0   195     3.1   843.0    0.00 
 237    9:50   0.85   75.3    26    0.9   161     2.4   843.0    0.00 
 237   10:00   0.87   76.1    25    0.8   191     2.0   843.0    0.00 
 237   10:10   0.89   76.2    25    0.7   165     1.8   843.0    0.00 
 237   10:20   0.82   76.2    26    0.8   168     1.8   842.0    0.00 
 237   10:30   0.22   76.9    25    1.0   193     2.3   842.0    0.00 
 237   10:40   0.71   76.8    25    0.9   174     2.5   842.0    0.00 
 237   10:50   0.94   76.5    25    0.8   145     2.7   842.0    0.00 
 237   11:00   0.94   77.8    25    0.9   147     2.6   842.0    0.00 
 237   11:10   0.94   78.0    24    0.9   162     2.3   842.0    0.00 
 237   11:20   0.94   78.2    24    0.9   145     2.6   842.0    0.00 
 237   11:30   0.95   78.2    24    1.1   163     3.4   842.0    0.00 
 237   11:40   0.96   78.7    24    0.8   210     1.9   842.0    0.00 
 237   11:50   0.96   80.0    23    1.0   165     2.2   842.0    0.00 
 237   12:00   0.96   79.1    24    1.1   163     4.4   842.0    0.00 
 237   12:10   0.96   80.3    23    1.0   212     2.6   842.0    0.00 
 237   12:20   0.95   79.4    23    1.1   207     3.0   842.0    0.00 
 237   12:30   0.94   79.8    23    0.9   159     2.4   842.0    0.00 
 237   12:40   0.94   79.9    23    0.9   172     2.2   842.0    0.00 
 237   12:50   0.92   80.5    22    1.0   148     2.8   842.0    0.00 
 237   13:00   0.91   80.4    24    1.1   158     2.9   842.0    0.00 
 237   13:10   0.91   80.5    24    1.1   137     2.3   842.0    0.00 
 237   13:20   0.90   80.4    24    1.2   173     2.8   842.0    0.00 
 237   13:30   0.88   79.6    25    1.0   151     2.9   841.0    0.00 
 237   13:40   0.87   79.5    25    1.1   193     3.9   841.0    0.00 
 237   13:50   0.85   80.3    24    1.0   137     2.5   841.0    0.00 
 237   14:00   0.82   80.7    24    1.0   169     2.4   841.0    0.00 
 237   14:10   0.80   80.3    24    1.0   186     2.6   841.0    0.00 
 237   14:20   0.77   80.7    23    1.1   143     2.6   841.0    0.00 
 237   14:30   0.30   80.1    24    0.9   150     1.9   841.0    0.00 
 237   14:40   0.09   79.9    24    0.8   172     2.6   841.0    0.00 
 237   14:50   0.12   79.3    25    0.9   147     2.3   841.0    0.00 
 237   15:00   0.09   78.7    26    1.1   204     2.7   841.0    0.00 
 237   15:10   0.12   78.7    26    0.9   152     2.2   841.0    0.00 
 237   15:20   0.08   78.9    26    1.0   154     2.6   841.0    0.00 
 237   15:30   0.14   78.1    28    0.8   163     2.4   841.0    0.00 
 237   15:40   0.06   78.1    28    0.9   141     2.4   841.0    0.00 
 237   15:50   0.07   77.0    29    0.9    28     1.9   841.0    0.00 
 237   16:00   0.05   76.9    30    0.7   289     2.0   841.0    0.00 
 237   16:10   0.04   76.8    30    0.7   126     2.7   841.0    0.00 
 237   16:20   0.04   76.3    33    0.8   141     2.0   841.0    0.00 
 237   16:30   0.04   75.6    35    0.7   239     2.5   840.0    0.00 
 237   16:40   0.03   75.1    36    0.8   174     2.5   840.0    0.00 
 237   16:50   0.03   74.3    38    0.7   155     2.5   840.0    0.00 
 237   17:00   0.03   73.8    40    0.6    46     1.8   840.0    0.00 
 237   17:10   0.03   73.3    40    0.6   180     1.6   840.0    0.00 
 237   17:20   0.02   72.5    42    0.5   171     1.2   840.0    0.00 
 237   17:30   0.02   71.8    44    0.3   213     0.9   840.0    0.00 
 237   17:40   0.01   70.9    45    0.5   209     1.2   840.0    0.00 
 237   17:50   0.01   70.0    47    0.3   358     0.7   840.0    0.00 
 237   18:00   0.01   69.2    49    0.3   322     0.7   840.0    0.00 
 237   18:10   0.00   68.4    51    0.2   349     0.6   840.0    0.00 
 237   18:20   0.00   67.4    52    0.2   338     0.4   840.0    0.00 
 237   18:30   0.00   66.3    53    0.1   331     0.3   840.0    0.00 
 237   18:40   0.00   65.2    54    0.2   333     0.5   840.0    0.00 
 237   18:50   0.00   64.0    56    0.2   351     0.6   840.0    0.00 
 237   19:00   0.00   63.5    57    0.4     8     0.8   840.0    0.00 
 237   19:10   0.00   62.7    58    0.2   271     0.5   840.0    0.00 
 237   19:20   0.00   61.7    59    0.3   347     0.6   841.0    0.00 
 237   19:30   0.00   60.9    57    0.3   280     1.0   841.0    0.00 
 237   19:40   0.00   60.2    55    0.4     3     0.8   841.0    0.00 
 237   19:50   0.00   59.8    51    0.4   356     0.6   841.0    0.00 
 237   20:00   0.00   59.4    47    0.3     2     0.7   841.0    0.00 
 237   20:10   0.00   58.9    46    0.4   334     0.9   841.0    0.00 
 237   20:20   0.00   58.4    46    0.4     1     0.8   841.0    0.00 
 237   20:30   0.00   58.0    46    0.3   352     0.5   841.0    0.00 
 237   20:40   0.00   57.6    45    0.3     4     0.5   841.0    0.00 
 237   20:50   0.00   57.1    45    0.2     2     0.5   841.0    0.00 
 237   21:00   0.00   56.8    45    0.2     3     0.5   841.0    0.00 
 237   21:10   0.00   56.6    46    0.2     9     0.4   841.0    0.00 
 237   21:20   0.00   56.3    46    0.2    11     0.5   841.0    0.00 
 237   21:30   0.00   56.0    46    0.2    16     0.5   841.0    0.00 
 237   21:40   0.00   55.6    46    0.2   356     0.5   841.0    0.00 
 237   21:50   0.00   55.4    47    0.2    19     0.5   841.0    0.00 
 237   22:00   0.00   55.2    47    0.3    10     0.6   841.0    0.00 
 237   22:10   0.00   55.0    47    0.2     3     0.5   841.0    0.00 
 237   22:20   0.00   54.8    47    0.2    21     0.5   841.0    0.00 
 237   22:30   0.00   54.7    47    0.3    25     0.5   841.0    0.00 
 237   22:40   0.00   54.5    47    0.2    15     0.5   841.0    0.00 
 237   22:50   0.00   54.2    47    0.3     5     0.6   841.0    0.00 
 237   23:00   0.00   54.0    48    0.3    30     0.6   841.0    0.00 
 237   23:10   0.00   54.0    48    0.2     0     0.5   841.0    0.00 
 237   23:20   0.00   53.9    48    0.3    20     0.5   841.0    0.00 
 237   23:30   0.00   53.7    49    0.2    20     0.5   841.0    0.00 
 237   23:40   0.00   53.5    49    0.3    37     0.8   841.0    0.00 
 237   23:50   0.00   53.4    49    0.3    17     0.5   840.0    0.00 
 238    0:00   0.00   53.2    49    0.2    21     0.5   840.0    0.00 
 238    0:10   0.00   53.2    48    0.3    28     0.5   840.0    0.00 
 238    0:20   0.00   53.1    49    0.3    28     0.5   840.0    0.00 
 238    0:30   0.00   53.1    50    0.2    25     0.4   840.0    0.00 
 238    0:40   0.00   53.0    50    0.3    34     0.5   840.0    0.00 
 238    0:50   0.00   52.9    50    0.2     9     0.4   840.0    0.00 

Return to James Reserve graphs page.


Western Regional Climate Center,wrcc@dri.edu